Terminal Aerodrome Forecast
Issued by NWS

Home | Current Version | Previous Version | Text Only | Print | Product List | Glossary On
Versions: 1 2 3 4 5 6 7 8 9 10 11 12 13 14 15 16 17 18 19 20 21 22 23 24 25 26 27 28 29
000
FTUS43 KBIS 301442 AAA
TAFMOT
TAF AMD
KMOT 301442Z 3015/3112 18015KT P6SM SCT010 BKN100
     FM301700 16009KT P6SM BKN100
     FM302300 13009KT P6SM BKN100
     FM310500 12005KT P6SM OVC050
     FM310900 12004KT P6SM BKN025=

USA.gov is the U.S. government's official web portal to all federal, state and local government web resources and services.